createdAt,value
2022-12-04T00:00:11.483Z,94.71
2022-12-04T00:01:11.408Z,94.71
2022-12-04T00:02:11.423Z,94.71
2022-12-04T00:03:11.524Z,94.95
2022-12-04T00:04:11.472Z,94.6
2022-12-04T00:05:11.518Z,93.55
2022-12-04T00:06:11.419Z,93.26
2022-12-04T00:07:11.416Z,92.87
2022-12-04T00:08:11.500Z,92.42
2022-12-04T00:09:11.422Z,92.42
2022-12-04T00:10:11.424Z,92.5
2022-12-04T00:11:11.405Z,92.5
2022-12-04T00:12:11.415Z,92.71
2022-12-04T00:13:11.407Z,93.73
2022-12-04T00:14:11.416Z,93.75
2022-12-04T00:15:26.462Z,93.78
2022-12-04T00:16:11.434Z,93.41
2022-12-04T00:17:11.408Z,93.41
2022-12-04T00:18:11.407Z,92.15
2022-12-04T00:19:11.408Z,92.15
2022-12-04T00:20:11.513Z,91.45
2022-12-04T00:21:11.414Z,91.25
2022-12-04T00:22:11.410Z,91.41
2022-12-04T00:23:11.413Z,92.1
2022-12-04T00:24:11.400Z,92.38
2022-12-04T00:25:11.422Z,92.27
2022-12-04T00:26:11.405Z,91.88
2022-12-04T00:27:11.404Z,91.66
2022-12-04T00:28:11.403Z,91.56
2022-12-04T00:29:11.421Z,93
2022-12-04T00:30:11.457Z,93
2022-12-04T00:31:11.445Z,94.35
2022-12-04T00:32:11.404Z,94.26
2022-12-04T00:33:11.402Z,93.8
2022-12-04T00:34:11.404Z,93.73
2022-12-04T00:35:11.414Z,93.41
2022-12-04T00:36:11.408Z,92.97
2022-12-04T00:37:11.402Z,92.89
2022-12-04T00:38:11.425Z,92.89
2022-12-04T00:39:11.416Z,92.56
2022-12-04T00:40:11.430Z,92.52
2022-12-04T00:41:11.421Z,92.21
2022-12-04T00:42:11.410Z,92.01
2022-12-04T00:43:11.426Z,92.54
2022-12-04T00:44:11.430Z,92.66
2022-12-04T00:45:11.432Z,92.62
2022-12-04T00:46:11.491Z,92.37
2022-12-04T00:47:11.430Z,92.47
2022-12-04T00:48:11.420Z,93.75
2022-12-04T00:49:11.409Z,93.75
2022-12-04T00:50:11.427Z,93.89
2022-12-04T00:51:11.425Z,93.75
2022-12-04T00:52:11.416Z,93.22
2022-12-04T00:53:11.405Z,93.2
2022-12-04T00:54:11.419Z,93
2022-12-04T00:55:11.432Z,93.23
2022-12-04T00:56:11.421Z,94.59
2022-12-04T00:57:11.427Z,94.59
2022-12-04T00:58:11.413Z,94.59
2022-12-04T00:59:11.439Z,94.96
2022-12-04T01:00:11.592Z,94.96
2022-12-04T01:01:11.489Z,94.96
2022-12-04T01:02:11.423Z,94.81
2022-12-04T01:03:11.604Z,94.42
2022-12-04T01:04:11.471Z,94.52
2022-12-04T01:05:11.432Z,94.32
2022-12-04T01:06:11.419Z,94.32
2022-12-04T01:07:11.422Z,94.24
2022-12-04T01:08:11.517Z,94.56
2022-12-04T01:09:11.419Z,94.56
2022-12-04T01:10:11.422Z,94.56
2022-12-04T01:11:11.426Z,94.56
2022-12-04T01:12:14.928Z,94.56
2022-12-04T01:13:11.412Z,94.56
2022-12-04T01:14:11.439Z,94.56
2022-12-04T01:15:11.431Z,94.56
2022-12-04T01:16:11.450Z,94.56
2022-12-04T01:17:11.419Z,94.56
2022-12-04T01:18:11.422Z,94.56
2022-12-04T01:19:11.399Z,94.56
2022-12-04T01:20:11.441Z,94.56
2022-12-04T01:21:11.414Z,94.56
2022-12-04T01:22:11.423Z,94.56
2022-12-04T01:23:11.418Z,94.56
2022-12-04T01:24:11.422Z,94.56
2022-12-04T01:25:11.426Z,94.56
2022-12-04T01:26:11.425Z,94.56
2022-12-04T01:27:11.398Z,94.56
2022-12-04T01:28:11.407Z,94.56
2022-12-04T01:29:11.422Z,94.56
2022-12-04T01:30:11.427Z,94.56
2022-12-04T01:31:11.504Z,94.56
2022-12-04T01:32:11.516Z,94.56
2022-12-04T01:33:11.407Z,94.56
2022-12-04T01:34:11.410Z,94.56
2022-12-04T01:35:11.421Z,94.56
2022-12-04T01:36:11.402Z,94.56
2022-12-04T01:37:11.428Z,94.56
2022-12-04T01:38:11.399Z,94.56
2022-12-04T01:39:11.406Z,94.56
2022-12-04T01:40:11.420Z,94.56
2022-12-04T01:41:11.409Z,94.56
2022-12-04T01:42:11.400Z,94.56
2022-12-04T01:43:11.406Z,94.56
2022-12-04T01:44:11.421Z,94.56
2022-12-04T01:45:11.422Z,94.56
2022-12-04T01:46:11.524Z,94.56
2022-12-04T01:47:11.400Z,94.56
2022-12-04T01:48:11.403Z,94.56
2022-12-04T01:49:11.409Z,94.56
2022-12-04T01:50:11.421Z,94.56
2022-12-04T01:51:11.414Z,94.56
2022-12-04T01:52:11.421Z,94.56
2022-12-04T01:53:11.421Z,94.56
2022-12-04T01:54:11.427Z,94.56
2022-12-04T01:55:11.441Z,94.56
2022-12-04T01:56:11.419Z,94.56
2022-12-04T01:57:11.414Z,94.56
2022-12-04T01:58:11.424Z,94.56
2022-12-04T01:59:11.428Z,94.56
2022-12-04T02:00:11.445Z,94.56
2022-12-04T02:01:11.499Z,94.56
2022-12-04T02:02:11.548Z,94.56
2022-12-04T02:03:11.471Z,94.56
2022-12-04T02:04:11.417Z,94.56
2022-12-04T02:05:11.427Z,94.56
2022-12-04T02:06:11.417Z,94.56
2022-12-04T02:07:11.421Z,94.56
2022-12-04T02:08:11.482Z,94.56
2022-12-04T02:09:11.425Z,94.56
2022-12-04T02:10:11.439Z,94.56
2022-12-04T02:11:11.443Z,94.56
2022-12-04T02:12:11.415Z,94.56
2022-12-04T02:13:11.429Z,94.56
2022-12-04T02:14:11.429Z,94.56
2022-12-04T02:15:11.510Z,94.56
2022-12-04T02:16:11.449Z,94.56
2022-12-04T02:17:11.405Z,94.56
2022-12-04T02:18:11.419Z,94.56
2022-12-04T02:19:11.421Z,94.56
2022-12-04T02:20:11.425Z,94.56
2022-12-04T02:21:11.421Z,94.56
2022-12-04T02:22:11.420Z,94.56
2022-12-04T02:23:11.420Z,94.56
2022-12-04T02:24:11.487Z,94.56
2022-12-04T02:25:11.438Z,94.56
2022-12-04T02:26:11.416Z,94.56
2022-12-04T02:27:11.424Z,94.56
2022-12-04T02:28:11.413Z,94.56
2022-12-04T02:29:11.428Z,94.56
2022-12-04T02:30:11.433Z,94.56
2022-12-04T02:31:11.487Z,94.56
2022-12-04T02:32:11.412Z,94.56
2022-12-04T02:33:11.417Z,94.56
2022-12-04T02:34:11.398Z,94.56
2022-12-04T02:35:11.424Z,94.56
2022-12-04T02:36:11.419Z,94.56
2022-12-04T02:37:11.415Z,94.56
2022-12-04T02:38:11.422Z,94.56
2022-12-04T02:39:11.413Z,94.56
2022-12-04T02:40:11.432Z,94.56
2022-12-04T02:41:11.420Z,94.56
2022-12-04T02:42:11.422Z,94.56
2022-12-04T02:43:11.416Z,94.56
2022-12-04T02:44:11.426Z,94.56
2022-12-04T02:45:11.421Z,94.56
2022-12-04T02:46:11.482Z,94.56
2022-12-04T02:47:11.403Z,94.56
2022-12-04T02:48:11.400Z,94.56
2022-12-04T02:49:11.482Z,94.56
2022-12-04T02:50:11.416Z,94.56
2022-12-04T02:51:11.404Z,94.56
2022-12-04T02:52:11.411Z,94.56
2022-12-04T02:53:11.407Z,94.56
2022-12-04T02:54:11.400Z,94.56
2022-12-04T02:55:11.493Z,94.56
2022-12-04T02:56:11.414Z,94.56
2022-12-04T02:57:11.405Z,94.56
2022-12-04T02:58:11.402Z,94.56
2022-12-04T02:59:11.422Z,94.56
2022-12-04T03:00:11.434Z,94.56
2022-12-04T03:01:11.424Z,94.56
2022-12-04T03:02:11.515Z,94.56
2022-12-04T03:03:11.407Z,94.56
2022-12-04T03:04:11.421Z,94.56
2022-12-04T03:05:11.420Z,94.56
2022-12-04T03:06:11.407Z,94.56
2022-12-04T03:07:11.423Z,94.56
2022-12-04T03:08:11.489Z,94.56
2022-12-04T03:09:11.419Z,94.56
2022-12-04T03:10:11.439Z,94.56
2022-12-04T03:11:11.403Z,94.56
2022-12-04T03:12:11.422Z,94.56
2022-12-04T03:13:11.433Z,94.56
2022-12-04T03:14:11.431Z,94.56
2022-12-04T03:15:11.434Z,94.56
2022-12-04T03:16:11.422Z,94.56
2022-12-04T03:17:11.454Z,94.56
2022-12-04T03:18:11.417Z,94.56
2022-12-04T03:19:11.611Z,94.56
2022-12-04T03:20:11.439Z,94.56
2022-12-04T03:21:11.433Z,94.56
2022-12-04T03:22:11.422Z,94.56
2022-12-04T03:23:11.422Z,94.56
2022-12-04T03:24:11.428Z,94.56
2022-12-04T03:25:11.503Z,94.56
2022-12-04T03:26:11.420Z,94.56
2022-12-04T03:27:11.418Z,94.56
2022-12-04T03:28:11.400Z,94.56
2022-12-04T03:29:11.441Z,94.56
2022-12-04T03:30:11.424Z,94.56
2022-12-04T03:31:11.495Z,94.56
2022-12-04T03:32:11.420Z,94.56
2022-12-04T03:33:11.422Z,95
2022-12-04T03:34:11.422Z,94.43
2022-12-04T03:35:11.443Z,94.11
2022-12-04T03:36:11.403Z,94.11
2022-12-04T03:37:11.416Z,94.41
2022-12-04T03:38:11.417Z,94.47
2022-12-04T03:39:11.402Z,94.26
2022-12-04T03:40:11.437Z,94.36
2022-12-04T03:41:11.417Z,94.66
2022-12-04T03:42:11.422Z,94.83
2022-12-04T03:43:11.418Z,95
2022-12-04T03:44:11.441Z,94.36
2022-12-04T03:45:11.447Z,93.69
2022-12-04T03:46:11.584Z,93.69
2022-12-04T03:47:11.421Z,93.41
2022-12-04T03:48:11.420Z,92.71
2022-12-04T03:49:11.421Z,92.6
2022-12-04T03:50:11.432Z,92.17
2022-12-04T03:51:11.430Z,92.15
2022-12-04T03:52:11.425Z,92.13
2022-12-04T03:53:11.423Z,92
2022-12-04T03:54:11.437Z,91.66
2022-12-04T03:55:11.416Z,91.66
2022-12-04T03:56:11.425Z,91.6
2022-12-04T03:57:11.470Z,91.6
2022-12-04T03:58:11.412Z,91.22
2022-12-04T03:59:11.418Z,91.41
2022-12-04T04:00:11.436Z,91.13
2022-12-04T04:01:11.483Z,91.52
2022-12-04T04:02:11.455Z,91.52
2022-12-04T04:03:11.407Z,91.24
2022-12-04T04:04:11.408Z,90.77
2022-12-04T04:05:11.422Z,91.2
2022-12-04T04:06:11.404Z,90.85
2022-12-04T04:07:11.406Z,90.82
2022-12-04T04:08:11.522Z,90.79
2022-12-04T04:09:11.412Z,91.09
2022-12-04T04:10:11.414Z,91.44
2022-12-04T04:11:11.409Z,92.06
2022-12-04T04:12:11.408Z,92.09
2022-12-04T04:13:11.405Z,92.52
2022-12-04T04:14:11.427Z,93.62
2022-12-04T04:15:11.426Z,93.62
2022-12-04T04:16:11.502Z,94.57
2022-12-04T04:17:11.407Z,94.57
2022-12-04T04:18:11.408Z,94.57
2022-12-04T04:19:11.404Z,94.57
2022-12-04T04:20:11.422Z,94.57
2022-12-04T04:21:11.427Z,94.57
2022-12-04T04:22:11.423Z,94.57
2022-12-04T04:23:11.418Z,94.57
2022-12-04T04:24:11.427Z,94.57
2022-12-04T04:25:11.435Z,94.57
2022-12-04T04:26:11.411Z,94.57
2022-12-04T04:27:11.419Z,94.57
2022-12-04T04:28:11.492Z,94.57
2022-12-04T04:29:11.440Z,94.57
2022-12-04T04:30:11.438Z,94.57
2022-12-04T04:31:11.492Z,94.57
2022-12-04T04:32:11.421Z,94.57
2022-12-04T04:33:11.428Z,94.57
2022-12-04T04:34:11.427Z,94.57
2022-12-04T04:35:11.446Z,94.57
2022-12-04T04:36:11.402Z,94.57
2022-12-04T04:37:11.424Z,94.57
2022-12-04T04:38:11.422Z,94.57
2022-12-04T04:39:11.422Z,94.57
2022-12-04T04:40:11.433Z,94.57
2022-12-04T04:41:11.422Z,94.57
2022-12-04T04:42:11.421Z,94.57
2022-12-04T04:43:11.426Z,94.57
2022-12-04T04:44:11.440Z,94.57
2022-12-04T04:45:11.432Z,94.57
2022-12-04T04:46:11.496Z,94.57
2022-12-04T04:47:11.422Z,94.57
2022-12-04T04:48:11.417Z,94.57
2022-12-04T04:49:11.421Z,94.57
2022-12-04T04:50:11.430Z,94.57
2022-12-04T04:51:11.428Z,94.57
2022-12-04T04:52:11.419Z,94.57
2022-12-04T04:53:11.483Z,94.57
2022-12-04T04:54:11.417Z,94.57
2022-12-04T04:55:11.438Z,94.57
2022-12-04T04:56:11.424Z,94.57
2022-12-04T04:57:11.419Z,94.57
2022-12-04T04:58:11.419Z,94.57
2022-12-04T04:59:11.434Z,94.57
2022-12-04T05:00:11.431Z,94.57
2022-12-04T05:01:11.616Z,94.57
2022-12-04T05:02:11.522Z,94.57
2022-12-04T05:03:11.469Z,94.57
2022-12-04T05:04:11.423Z,94.57
2022-12-04T05:05:11.435Z,94.57
2022-12-04T05:06:11.418Z,94.57
2022-12-04T05:07:11.406Z,94.57
2022-12-04T05:08:11.487Z,94.57
2022-12-04T05:09:11.399Z,94.57
2022-12-04T05:10:11.429Z,94.57
2022-12-04T05:11:11.402Z,94.57
2022-12-04T05:12:11.407Z,94.57
2022-12-04T05:13:11.411Z,94.57
2022-12-04T05:14:11.421Z,94.57
2022-12-04T05:15:11.418Z,94.57
2022-12-04T05:16:11.453Z,94.57
2022-12-04T05:17:12.909Z,94.57
2022-12-04T05:18:11.509Z,94.57
2022-12-04T05:19:11.432Z,94.57
2022-12-04T05:20:11.427Z,94.57
2022-12-04T05:21:11.401Z,94.57
2022-12-04T05:22:11.426Z,94.57
2022-12-04T05:23:11.433Z,94.57
2022-12-04T05:24:11.409Z,94.57
2022-12-04T05:25:11.439Z,94.57
2022-12-04T05:26:11.408Z,94.57
2022-12-04T05:27:11.408Z,94.57
2022-12-04T05:28:11.408Z,94.57
2022-12-04T05:29:11.420Z,94.57
2022-12-04T05:30:11.447Z,94.57
2022-12-04T05:31:11.471Z,94.57
2022-12-04T05:32:11.419Z,94.57
2022-12-04T05:33:11.427Z,94.57
2022-12-04T05:34:11.421Z,94.57
2022-12-04T05:35:11.858Z,94.57
2022-12-04T05:36:11.418Z,94.57
2022-12-04T05:37:11.426Z,94.57
2022-12-04T05:38:11.434Z,94.57
2022-12-04T05:39:11.418Z,94.57
2022-12-04T05:40:11.485Z,94.57
2022-12-04T05:41:11.423Z,94.57
2022-12-04T05:42:11.419Z,94.57
2022-12-04T05:43:11.415Z,94.57
2022-12-04T05:44:11.438Z,94.57
2022-12-04T05:45:11.427Z,94.57
2022-12-04T05:46:11.498Z,94.57
2022-12-04T05:47:11.548Z,94.57
2022-12-04T05:48:11.414Z,94.57
2022-12-04T05:49:11.424Z,94.57
2022-12-04T05:50:11.434Z,94.57
2022-12-04T05:51:11.427Z,94.57
2022-12-04T05:52:11.418Z,94.57
2022-12-04T05:53:11.428Z,94.57
2022-12-04T05:54:11.416Z,94.57
2022-12-04T05:55:11.439Z,94.57
2022-12-04T05:56:11.425Z,94.57
2022-12-04T05:57:11.424Z,94.57
2022-12-04T05:58:11.410Z,94.57
2022-12-04T05:59:11.435Z,94.57
2022-12-04T06:00:11.442Z,94.57
2022-12-04T06:01:11.421Z,94.57
2022-12-04T06:02:11.473Z,94.57
2022-12-04T06:03:11.523Z,94.57
2022-12-04T06:04:11.417Z,94.57
2022-12-04T06:05:11.431Z,94.57
2022-12-04T06:06:16.074Z,94.57
2022-12-04T06:07:11.421Z,94.57
2022-12-04T06:08:11.480Z,94.57
2022-12-04T06:09:11.418Z,94.57
2022-12-04T06:10:11.428Z,94.57
2022-12-04T06:11:11.423Z,94.57
2022-12-04T06:12:11.419Z,94.57
2022-12-04T06:13:11.429Z,94.57
2022-12-04T06:14:11.428Z,94.71
2022-12-04T06:15:11.442Z,94.71
2022-12-04T06:16:11.499Z,94.17
2022-12-04T06:17:11.405Z,94.17
2022-12-04T06:18:11.401Z,94.17
2022-12-04T06:19:11.404Z,93.56
2022-12-04T06:20:12.049Z,93.36
2022-12-04T06:21:11.402Z,93.38
2022-12-04T06:22:11.412Z,93.91
2022-12-04T06:23:11.411Z,93.91
2022-12-04T06:24:11.404Z,93.91
2022-12-04T06:25:11.424Z,93.91
2022-12-04T06:26:11.459Z,93.91
2022-12-04T06:27:27.215Z,93.91
2022-12-04T06:28:11.413Z,93.91
2022-12-04T06:29:11.415Z,93.91
2022-12-04T06:30:11.453Z,93.91
2022-12-04T06:31:11.500Z,94.97
2022-12-04T06:32:14.060Z,94.97
2022-12-04T06:33:11.406Z,94.59
2022-12-04T06:34:11.403Z,94.06
2022-12-04T06:35:11.422Z,93.72
2022-12-04T06:36:11.401Z,93.28
2022-12-04T06:37:11.401Z,92.98
2022-12-04T06:38:11.400Z,93.23
2022-12-04T06:39:16.936Z,93.28
2022-12-04T06:40:11.431Z,93.28
2022-12-04T06:41:11.410Z,92.93
2022-12-04T06:42:11.426Z,93.91
2022-12-04T06:43:11.406Z,94.08
2022-12-04T06:44:11.445Z,93.91
2022-12-04T06:45:11.429Z,93.45
2022-12-04T06:46:11.482Z,93.26
2022-12-04T06:47:11.419Z,93.01
2022-12-04T06:48:11.430Z,93.03
2022-12-04T06:49:11.417Z,93.83
2022-12-04T06:50:11.426Z,93.83
2022-12-04T06:51:11.497Z,94.72
2022-12-04T06:52:11.422Z,94.72
2022-12-04T06:53:11.430Z,94.72
2022-12-04T06:54:11.401Z,94.72
2022-12-04T06:55:11.432Z,94.72
2022-12-04T06:56:11.419Z,94.72
2022-12-04T06:57:11.422Z,94.72
2022-12-04T06:58:11.417Z,94.72
2022-12-04T06:59:11.448Z,94.72
2022-12-04T07:00:11.436Z,94.72
2022-12-04T07:01:11.522Z,94.72
2022-12-04T07:02:11.500Z,94.72
2022-12-04T07:03:11.417Z,94.72
2022-12-04T07:04:11.428Z,94.72
2022-12-04T07:05:11.442Z,94.72
2022-12-04T07:06:11.420Z,94.72
2022-12-04T07:07:11.422Z,94.72
2022-12-04T07:08:11.454Z,94.72
2022-12-04T07:09:11.426Z,94.72
2022-12-04T07:10:11.432Z,94.72
2022-12-04T07:11:11.435Z,94.84
2022-12-04T07:12:11.439Z,94.52
2022-12-04T07:13:11.430Z,94.37
2022-12-04T07:14:11.430Z,94.09
2022-12-04T07:15:11.443Z,93.59
2022-12-04T07:16:11.446Z,93.88
2022-12-04T07:17:11.486Z,93.43
2022-12-04T07:18:11.419Z,93.43
2022-12-04T07:19:11.456Z,93.31
2022-12-04T07:20:11.422Z,93.31
2022-12-04T07:21:11.439Z,93.25
2022-12-04T07:22:11.402Z,92.95
2022-12-04T07:23:11.428Z,92.29
2022-12-04T07:24:11.417Z,92.56
2022-12-04T07:25:11.416Z,92.57
2022-12-04T07:26:11.428Z,92.59
2022-12-04T07:27:11.422Z,92.41
2022-12-04T07:28:11.434Z,92.46
2022-12-04T07:29:11.476Z,92.29
2022-12-04T07:30:15.672Z,92.29
2022-12-04T07:31:11.581Z,93.13
2022-12-04T07:32:11.457Z,92.95
2022-12-04T07:33:11.417Z,92.83
2022-12-04T07:34:11.402Z,92.83
2022-12-04T07:35:11.421Z,92.9
2022-12-04T07:36:11.402Z,93.39
2022-12-04T07:37:11.404Z,93.81
2022-12-04T07:38:11.412Z,94.13
2022-12-04T07:39:11.399Z,94.64
2022-12-04T07:40:11.425Z,94.64
2022-12-04T07:41:11.427Z,94.64
2022-12-04T07:42:11.404Z,94.64
2022-12-04T07:43:11.430Z,94.64
2022-12-04T07:44:11.426Z,94.64
2022-12-04T07:45:11.425Z,94.64
2022-12-04T07:46:11.527Z,94.64
2022-12-04T07:47:11.399Z,94.64
2022-12-04T07:48:11.405Z,94.64
2022-12-04T07:49:11.405Z,94.64
2022-12-04T07:50:11.435Z,94.64
2022-12-04T07:51:11.402Z,94.64
2022-12-04T07:52:11.408Z,94.64
2022-12-04T07:53:11.401Z,94.64
2022-12-04T07:54:11.407Z,94.64
2022-12-04T07:55:11.415Z,94.64
2022-12-04T07:56:11.402Z,94.64
2022-12-04T07:57:11.407Z,94.64
2022-12-04T07:58:11.403Z,94.64
2022-12-04T07:59:11.436Z,94.64
2022-12-04T08:00:11.433Z,94.64
2022-12-04T08:01:11.483Z,94.64
2022-12-04T08:02:11.424Z,94.64
2022-12-04T08:03:11.415Z,94.64
2022-12-04T08:04:11.480Z,94.64
2022-12-04T08:05:11.430Z,94.64
2022-12-04T08:06:11.479Z,94.64
2022-12-04T08:07:11.402Z,94.64
2022-12-04T08:08:11.458Z,94.64
2022-12-04T08:09:11.421Z,94.64
2022-12-04T08:10:11.432Z,94.64
2022-12-04T08:11:11.431Z,94.64
2022-12-04T08:12:11.423Z,94.64
2022-12-04T08:13:11.419Z,94.64
2022-12-04T08:14:11.423Z,94.64
2022-12-04T08:15:11.439Z,94.64
2022-12-04T08:16:11.423Z,94.64
2022-12-04T08:17:11.478Z,94.64
2022-12-04T08:18:11.403Z,94.64
2022-12-04T08:19:11.430Z,94.64
2022-12-04T08:20:11.428Z,94.64
2022-12-04T08:21:11.423Z,94.64
2022-12-04T08:22:11.421Z,94.64
2022-12-04T08:23:11.424Z,94.64
2022-12-04T08:24:11.431Z,94.64
2022-12-04T08:25:11.436Z,94.64
2022-12-04T08:26:11.422Z,94.64
2022-12-04T08:27:11.416Z,94.64
2022-12-04T08:28:11.416Z,94.64
2022-12-04T08:29:11.437Z,94.64
2022-12-04T08:30:11.426Z,94.64
2022-12-04T08:31:11.461Z,94.64
2022-12-04T08:32:11.420Z,94.64
2022-12-04T08:33:11.411Z,94.64
2022-12-04T08:34:11.434Z,94.64
2022-12-04T08:35:11.427Z,94.64
2022-12-04T08:36:11.426Z,94.64
2022-12-04T08:37:11.457Z,94.64
2022-12-04T08:38:11.424Z,94.64
2022-12-04T08:39:11.417Z,94.64
2022-12-04T08:40:11.432Z,94.64
2022-12-04T08:41:11.419Z,94.64
2022-12-04T08:42:11.420Z,94.64
2022-12-04T08:43:11.421Z,94.64
2022-12-04T08:44:11.430Z,94.64
2022-12-04T08:45:11.434Z,94.64
2022-12-04T08:46:11.468Z,94.64
2022-12-04T08:47:11.404Z,94.64
2022-12-04T08:48:11.412Z,94.64
2022-12-04T08:49:11.426Z,94.61
2022-12-04T08:50:11.430Z,94.19
2022-12-04T08:51:11.400Z,93.9
2022-12-04T08:52:11.405Z,93.57
2022-12-04T08:53:11.401Z,93.44
2022-12-04T08:54:11.427Z,93.07
2022-12-04T08:55:11.416Z,92.78
2022-12-04T08:56:11.406Z,93.49
2022-12-04T08:57:11.405Z,93.95
2022-12-04T08:58:11.416Z,93.52
2022-12-04T08:59:11.419Z,92.97
2022-12-04T09:00:11.444Z,92.67
2022-12-04T09:01:11.510Z,93.12
2022-12-04T09:02:11.416Z,92.52
2022-12-04T09:03:11.416Z,92.03
2022-12-04T09:04:11.461Z,92
2022-12-04T09:05:11.420Z,91.54
2022-12-04T09:06:11.406Z,91.68
2022-12-04T09:07:11.401Z,91.12
2022-12-04T09:08:11.460Z,90.8
2022-12-04T09:09:11.406Z,90.48
2022-12-04T09:10:11.424Z,90.48
2022-12-04T09:11:11.413Z,90.11
2022-12-04T09:12:11.411Z,89.9
2022-12-04T09:13:11.417Z,89.68
2022-12-04T09:14:11.421Z,89.91
2022-12-04T09:15:11.419Z,89.75
2022-12-04T09:16:11.515Z,89.64
2022-12-04T09:17:11.417Z,89.2
2022-12-04T09:18:11.419Z,88.92
2022-12-04T09:19:11.438Z,88.68
2022-12-04T09:20:11.436Z,88.68
2022-12-04T09:21:11.414Z,89
2022-12-04T09:22:11.418Z,89.02
2022-12-04T09:23:11.416Z,89.49
2022-12-04T09:24:11.487Z,90.15
2022-12-04T09:25:11.443Z,89.8
2022-12-04T09:26:11.415Z,90.39
2022-12-04T09:27:14.694Z,91.22
2022-12-04T09:28:11.436Z,91.56
2022-12-04T09:29:11.512Z,91.76
2022-12-04T09:30:11.432Z,91.76
2022-12-04T09:31:11.518Z,91.4
2022-12-04T09:32:11.417Z,91.82
2022-12-04T09:33:11.429Z,92.04
2022-12-04T09:34:11.416Z,92.3
2022-12-04T09:35:11.446Z,92.13
2022-12-04T09:36:11.430Z,92.17
2022-12-04T09:37:11.424Z,92.55
2022-12-04T09:38:11.424Z,92.38
2022-12-04T09:39:11.423Z,92.3
2022-12-04T09:40:12.086Z,92.3
2022-12-04T09:41:11.405Z,92.2
2022-12-04T09:42:11.433Z,91.61
2022-12-04T09:43:11.426Z,91.05
2022-12-04T09:44:11.431Z,90.94
2022-12-04T09:45:11.430Z,90.79
2022-12-04T09:46:11.572Z,90.6
2022-12-04T09:47:11.468Z,90.6
2022-12-04T09:48:11.493Z,90.44
2022-12-04T09:49:11.421Z,89.73
2022-12-04T09:50:11.451Z,89.73
2022-12-04T09:51:11.437Z,90.22
2022-12-04T09:52:11.419Z,90.49
2022-12-04T09:53:11.417Z,90.24
2022-12-04T09:54:11.415Z,89.62
2022-12-04T09:55:11.425Z,90.08
2022-12-04T09:56:11.428Z,90.46
2022-12-04T09:57:11.406Z,90.76
2022-12-04T09:58:11.424Z,90.76
2022-12-04T09:59:11.442Z,91.06
2022-12-04T10:00:11.435Z,91.06
2022-12-04T10:01:11.414Z,91.23
2022-12-04T10:02:11.516Z,91.23
2022-12-04T10:03:11.512Z,90.91
2022-12-04T10:04:11.484Z,90.54
2022-12-04T10:05:11.423Z,90.35
2022-12-04T10:06:11.407Z,90.61
2022-12-04T10:07:11.409Z,90.46
2022-12-04T10:08:11.496Z,90.43
2022-12-04T10:09:11.400Z,90.1
2022-12-04T10:10:11.434Z,89.89
2022-12-04T10:11:11.403Z,90.26
2022-12-04T10:12:11.405Z,91.08
2022-12-04T10:13:11.402Z,91.04
2022-12-04T10:14:11.422Z,91.59
2022-12-04T10:15:11.415Z,91.32
2022-12-04T10:16:11.445Z,91.11
2022-12-04T10:17:11.401Z,90.64
2022-12-04T10:18:11.463Z,90.19
2022-12-04T10:19:11.400Z,89.67
2022-12-04T10:20:11.427Z,89.67
2022-12-04T10:21:11.423Z,89.84
2022-12-04T10:22:11.415Z,90.43
2022-12-04T10:23:14.039Z,90.18
2022-12-04T10:24:11.547Z,89.46
2022-12-04T10:25:11.427Z,89.49
2022-12-04T10:26:11.425Z,89.67
2022-12-04T10:27:11.408Z,89.48
2022-12-04T10:28:11.429Z,89.4
2022-12-04T10:29:11.448Z,89.21
2022-12-04T10:30:11.426Z,89.21
2022-12-04T10:31:11.448Z,88.53
2022-12-04T10:32:11.423Z,88.48
2022-12-04T10:33:11.430Z,88.5
2022-12-04T10:34:11.665Z,88.46
2022-12-04T10:35:11.429Z,88.46
2022-12-04T10:36:11.419Z,88.55
2022-12-04T10:37:11.408Z,88.55
2022-12-04T10:38:11.423Z,88.33
2022-12-04T10:39:11.425Z,88.16
2022-12-04T10:40:11.436Z,88.16
2022-12-04T10:41:14.919Z,89.41
2022-12-04T10:42:11.427Z,88.75
2022-12-04T10:43:11.418Z,88.11
2022-12-04T10:44:11.441Z,88.16
2022-12-04T10:45:11.433Z,87.75
2022-12-04T10:46:11.453Z,87.89
2022-12-04T10:47:11.533Z,87.69
2022-12-04T10:48:11.416Z,87.19
2022-12-04T10:49:11.418Z,86.97
2022-12-04T10:50:11.430Z,86.97
2022-12-04T10:51:11.419Z,88.04
2022-12-04T10:52:11.422Z,88.29
2022-12-04T10:53:13.827Z,88.85
2022-12-04T10:54:11.408Z,89.75
2022-12-04T10:55:11.436Z,89.86
2022-12-04T10:56:11.419Z,89.48
2022-12-04T10:57:11.415Z,89.07
2022-12-04T10:58:11.418Z,88.5
2022-12-04T10:59:11.439Z,88.17
2022-12-04T11:00:11.571Z,88.17
2022-12-04T11:01:11.429Z,88.4
2022-12-04T11:02:11.513Z,88.21
2022-12-04T11:03:11.476Z,87.75
2022-12-04T11:04:11.428Z,87.19
2022-12-04T11:05:11.415Z,87.29
2022-12-04T11:06:11.423Z,87.62
2022-12-04T11:07:11.428Z,88
2022-12-04T11:08:15.568Z,88.19
2022-12-04T11:09:11.416Z,88.3
2022-12-04T11:10:11.423Z,88.3
2022-12-04T11:11:11.447Z,88.35
2022-12-04T11:12:11.417Z,88.11
2022-12-04T11:13:11.445Z,88.11
2022-12-04T11:14:11.429Z,87.7
2022-12-04T11:15:11.439Z,87.7
2022-12-04T11:16:11.504Z,87.7
2022-12-04T11:17:11.412Z,87.6
2022-12-04T11:18:11.412Z,87.48
2022-12-04T11:19:11.408Z,88.14
2022-12-04T11:20:11.470Z,88.56
2022-12-04T11:21:11.482Z,88.42
2022-12-04T11:22:11.399Z,88.69
2022-12-04T11:23:11.402Z,88.76
2022-12-04T11:24:11.406Z,88.79
2022-12-04T11:25:11.419Z,89.1
2022-12-04T11:26:11.399Z,88.68
2022-12-04T11:27:11.401Z,88.32
2022-12-04T11:28:22.522Z,88.18
2022-12-04T11:29:11.416Z,88.65
2022-12-04T11:30:11.424Z,88.99
2022-12-04T11:31:11.477Z,89.47
2022-12-04T11:32:11.506Z,89.47
2022-12-04T11:33:11.405Z,89.97
2022-12-04T11:34:11.413Z,89.86
2022-12-04T11:35:11.426Z,90.05
2022-12-04T11:36:11.418Z,90.15
2022-12-04T11:37:11.415Z,89.76
2022-12-04T11:38:11.422Z,88.98
2022-12-04T11:39:11.420Z,88.51
2022-12-04T11:40:11.434Z,88.51
2022-12-04T11:41:11.424Z,89.27
2022-12-04T11:42:11.423Z,89.63
2022-12-04T11:43:11.414Z,89.5
2022-12-04T11:44:11.937Z,88.87
2022-12-04T11:45:11.436Z,88.96
2022-12-04T11:46:11.447Z,88.94
2022-12-04T11:47:11.498Z,88.93
2022-12-04T11:48:11.507Z,89.01
2022-12-04T11:49:11.419Z,88.95
2022-12-04T11:50:11.552Z,88.95
2022-12-04T11:51:11.733Z,88.94
2022-12-04T11:52:11.436Z,88.52
2022-12-04T11:53:11.425Z,88.6
2022-12-04T11:54:11.423Z,88.63
2022-12-04T11:55:11.440Z,88.92
2022-12-04T11:56:11.423Z,88.83
2022-12-04T11:57:11.422Z,88.5
2022-12-04T11:58:11.423Z,88.32
2022-12-04T11:59:11.472Z,87.91
2022-12-04T12:00:11.433Z,87.91
2022-12-04T12:01:11.428Z,88.56
2022-12-04T12:02:11.512Z,88.5
2022-12-04T12:03:11.857Z,88.41
2022-12-04T12:04:11.417Z,87.99
2022-12-04T12:05:11.436Z,87.44
2022-12-04T12:06:11.432Z,87.24
2022-12-04T12:07:11.424Z,86.93
2022-12-04T12:08:11.828Z,87.23
2022-12-04T12:09:11.413Z,87.54
2022-12-04T12:10:13.031Z,87.54
2022-12-04T12:11:11.512Z,87.92
2022-12-04T12:12:11.552Z,87.94
2022-12-04T12:13:11.884Z,87.42
2022-12-04T12:14:11.572Z,87.29
2022-12-04T12:15:11.522Z,86.93
2022-12-04T12:16:11.900Z,86.89
2022-12-04T12:17:11.456Z,86.89
2022-12-04T12:18:11.424Z,86.89
2022-12-04T12:19:11.904Z,86.96
2022-12-04T12:20:11.450Z,86.96
2022-12-04T12:21:11.476Z,87.28
2022-12-04T12:22:11.488Z,87.04
2022-12-04T12:23:11.428Z,86.96
2022-12-04T12:24:11.419Z,87.1
2022-12-04T12:25:16.562Z,87.4
2022-12-04T12:26:11.425Z,87.04
2022-12-04T12:27:11.425Z,86.86
2022-12-04T12:28:11.411Z,86.99
2022-12-04T12:29:11.440Z,86.99
2022-12-04T12:30:12.276Z,86.99
2022-12-04T12:31:11.468Z,87.1
2022-12-04T12:32:11.457Z,87.17
2022-12-04T12:33:11.477Z,87.28
2022-12-04T12:34:11.537Z,87.65
2022-12-04T12:35:11.426Z,87.74
2022-12-04T12:36:11.561Z,87.56
2022-12-04T12:37:11.400Z,87.41
2022-12-04T12:38:11.404Z,87.37
2022-12-04T12:39:11.405Z,87.37
2022-12-04T12:40:11.436Z,87.4
2022-12-04T12:41:11.406Z,87.54
2022-12-04T12:42:11.406Z,87.4
2022-12-04T12:43:11.433Z,87.54
2022-12-04T12:44:11.425Z,87.6
2022-12-04T12:45:11.427Z,87.56
2022-12-04T12:46:11.474Z,87.68
2022-12-04T12:47:11.411Z,87.66
2022-12-04T12:48:11.399Z,87.53
2022-12-04T12:49:11.401Z,87.7
2022-12-04T12:50:11.430Z,87.7
2022-12-04T12:51:29.017Z,87.83
2022-12-04T12:52:11.867Z,87.16
2022-12-04T12:53:11.412Z,87.64
2022-12-04T12:54:11.399Z,87.58
2022-12-04T12:55:11.434Z,87.81